createdAt,value
2023-03-17T00:02:40.344Z,26.4
2023-03-17T00:08:33.884Z,24.6
2023-03-17T00:14:10.456Z,24.8
2023-03-17T00:20:03.174Z,24.3
2023-03-17T00:25:56.391Z,24.1
2023-03-17T00:31:33.678Z,23.4
2023-03-17T00:36:54.572Z,23.4
2023-03-17T00:42:32.282Z,22.8
2023-03-17T00:48:25.028Z,24.1
2023-03-17T00:54:16.916Z,26.2
2023-03-17T00:59:54.720Z,24.5
2023-03-17T01:05:56.918Z,24.2
2023-03-17T01:11:33.622Z,24.3
2023-03-17T01:17:11.609Z,23.9
2023-03-17T01:23:03.943Z,23.5
2023-03-17T01:28:55.880Z,23.3
2023-03-17T01:34:33.636Z,22.8
2023-03-17T01:39:55.884Z,23.8
2023-03-17T01:45:49.148Z,25.6
2023-03-17T01:51:42.724Z,25.1
2023-03-17T01:57:19.304Z,24
2023-03-17T02:02:24.784Z,24.3
2023-03-17T02:08:30.869Z,23.8
2023-03-17T02:14:23.839Z,23.6
2023-03-17T02:20:16.034Z,22.9
2023-03-17T02:25:38.508Z,22.9
2023-03-17T02:31:15.579Z,23.2
2023-03-17T02:36:53.689Z,25.3
2023-03-17T02:42:31.406Z,26.8
2023-03-17T02:48:08.233Z,23.9
2023-03-17T02:53:44.214Z,24.4
2023-03-17T02:59:21.975Z,23.8
2023-03-17T03:05:15.489Z,23.7
2023-03-17T03:11:07.550Z,23.1
2023-03-17T03:17:01.664Z,22.9
2023-03-17T03:22:54.447Z,23
2023-03-17T03:28:45.671Z,25.1
2023-03-17T03:34:24.086Z,23.5
2023-03-17T03:40:16.726Z,24.1
2023-03-17T03:45:51.525Z,26.1
2023-03-17T03:51:28.931Z,24.1
2023-03-17T03:57:20.779Z,23.7
2023-03-17T04:03:00.269Z,24
2023-03-17T04:08:36.633Z,23.6
2023-03-17T04:14:29.321Z,23.3
2023-03-17T04:20:22.102Z,23.2
2023-03-17T04:26:15.026Z,25.1
2023-03-17T04:32:10.584Z,26.8
2023-03-17T04:37:51.150Z,23.8
2023-03-17T04:43:44.325Z,24.3
2023-03-17T04:49:22.092Z,23.7
2023-03-17T04:55:03.176Z,23.6
2023-03-17T05:01:10.047Z,23
2023-03-17T05:07:32.212Z,24
2023-03-17T05:13:09.378Z,26
2023-03-17T05:19:02.074Z,24.4
2023-03-17T05:24:54.489Z,23.7
2023-03-17T05:30:47.498Z,24.1
2023-03-17T05:36:41.147Z,23.4
2023-03-17T05:42:35.223Z,23.3
2023-03-17T05:48:28.284Z,23.1
2023-03-17T05:54:23.022Z,24.8
2023-03-17T05:59:59.969Z,26.6
2023-03-17T06:05:53.273Z,23.8
2023-03-17T06:11:45.000Z,24
2023-03-17T06:17:37.627Z,23.8
2023-03-17T06:23:40.272Z,23.6
2023-03-17T06:29:32.069Z,23.1
2023-03-17T06:35:39.306Z,23.7
2023-03-17T06:41:31.544Z,25.7
2023-03-17T06:47:27.282Z,24.7
2023-03-17T06:53:20.360Z,24
2023-03-17T06:59:30.855Z,26
2023-03-17T07:05:23.335Z,23.9
2023-03-17T07:11:16.008Z,23.6
2023-03-17T07:17:08.807Z,23.9
2023-03-17T07:23:01.870Z,23.7
2023-03-17T07:28:54.489Z,23.1
2023-03-17T07:34:16.852Z,23.4
2023-03-17T07:39:54.708Z,25.3
2023-03-17T07:45:47.854Z,26.9
2023-03-17T07:51:53.908Z,23.6
2023-03-17T07:57:50.050Z,24.3
2023-03-17T08:03:59.316Z,23.6
2023-03-17T08:09:51.581Z,23.4
2023-03-17T08:15:44.260Z,22.9
2023-03-17T08:21:38.957Z,24.4
2023-03-17T08:27:34.591Z,26.4
2023-03-17T08:33:29.660Z,23.6
2023-03-17T08:39:09.045Z,23.8
2023-03-17T08:45:01.930Z,23.9
2023-03-17T08:50:40.067Z,23.6
2023-03-17T08:56:17.511Z,23.1
2023-03-17T09:02:11.079Z,23.3
2023-03-17T09:08:25.491Z,25.4
2023-03-17T09:14:19.809Z,24.9
2023-03-17T09:20:09.125Z,23.3
2023-03-17T09:26:02.649Z,24.1
2023-03-17T09:31:56.893Z,23.4
2023-03-17T09:37:22.785Z,23.3
2023-03-17T09:43:16.503Z,22.8
2023-03-17T09:49:10.177Z,24
2023-03-17T09:55:04.132Z,26.1
2023-03-17T10:00:56.631Z,23.8
2023-03-17T10:06:50.117Z,23.3
2023-03-17T10:12:55.599Z,23.9
2023-03-17T10:18:49.588Z,23.3
2023-03-17T10:24:11.924Z,22.6
2023-03-17T10:30:07.980Z,23.9
2023-03-17T10:36:01.851Z,26
2023-03-17T10:42:05.225Z,23.9
2023-03-17T10:47:58.538Z,23.3
2023-03-17T10:53:51.400Z,23.9
2023-03-17T10:59:45.084Z,23.3
2023-03-17T11:05:39.722Z,22.7
2023-03-17T11:11:32.445Z,23.9
2023-03-17T11:17:24.464Z,26
2023-03-17T11:23:17.334Z,23.9
2023-03-17T11:28:39.830Z,23.4
2023-03-17T11:34:33.133Z,23.2
2023-03-17T11:40:25.962Z,22.9
2023-03-17T11:46:18.804Z,23.9
2023-03-17T11:52:11.777Z,26.1
2023-03-17T11:58:04.501Z,23.7
2023-03-17T12:03:57.590Z,23.3
2023-03-17T12:09:50.014Z,23.1
2023-03-17T12:15:43.191Z,24.9
2023-03-17T12:21:38.599Z,26.3
2023-03-17T12:27:16.029Z,23.4
2023-03-17T12:33:08.762Z,23.3
2023-03-17T12:39:05.669Z,23.7
2023-03-17T12:44:59.038Z,25.9
2023-03-17T12:50:53.552Z,23.8
2023-03-17T12:56:45.251Z,23.3
2023-03-17T13:02:38.780Z,23.3
2023-03-17T13:08:36.605Z,24.5
2023-03-17T13:14:14.416Z,26.8
2023-03-17T13:20:07.235Z,23.5
2023-03-17T13:26:02.712Z,23.3
2023-03-17T13:32:00.717Z,23.1
2023-03-17T13:37:53.962Z,25.1
2023-03-17T13:44:17.053Z,25.3
2023-03-17T13:50:11.153Z,23.6
2023-03-17T13:56:09.680Z,23.4
2023-03-17T14:02:03.682Z,23.4
2023-03-17T14:07:57.295Z,25.6
2023-03-17T14:13:50.357Z,24.3
2023-03-17T14:19:37.670Z,23.6
2023-03-17T14:25:34.680Z,23.4
2023-03-17T14:31:30.168Z,23
2023-03-17T14:37:08.376Z,24.6
2023-03-17T14:43:01.652Z,26.6
2023-03-17T14:48:54.669Z,23.7
2023-03-17T14:54:46.826Z,23.5
2023-03-17T15:00:41.123Z,23.1
2023-03-17T15:06:37.303Z,22.7
2023-03-17T15:12:30.611Z,25.1
2023-03-17T15:18:23.967Z,25.7
2023-03-17T15:24:17.201Z,23.6
2023-03-17T15:30:10.435Z,23.4
2023-03-17T15:36:16.538Z,23
2023-03-17T15:42:10.690Z,22.6
2023-03-17T15:48:03.480Z,22.1
2023-03-17T15:53:56.984Z,21.6
2023-03-17T15:59:52.022Z,21.2
2023-03-17T16:05:44.030Z,20.7
2023-03-17T16:11:38.839Z,20.4
2023-03-17T16:17:45.707Z,20
2023-03-17T16:23:38.503Z,19.7
2023-03-17T16:29:42.284Z,19.4
2023-03-17T16:35:19.064Z,19.1
2023-03-17T16:41:12.348Z,19.1
2023-03-17T16:47:17.045Z,19.2
2023-03-17T16:52:53.833Z,19.3
2023-03-17T16:58:47.938Z,19.4
2023-03-17T17:04:11.019Z,19.4
2023-03-17T17:09:47.386Z,19.4
2023-03-17T17:15:24.388Z,19.5
2023-03-17T17:21:01.143Z,19.6
2023-03-17T17:26:40.121Z,19.8
2023-03-17T17:32:02.949Z,19.8
2023-03-17T17:37:55.889Z,19.8
2023-03-17T17:43:49.854Z,19.8
2023-03-17T17:49:29.083Z,19.9
2023-03-17T17:55:22.379Z,20.3
2023-03-17T18:00:58.775Z,21
2023-03-17T18:06:20.750Z,21.8
2023-03-17T18:11:58.653Z,22.4
2023-03-17T18:17:35.091Z,23.1
2023-03-17T18:23:27.636Z,23.4
2023-03-17T18:29:21.184Z,23.7
2023-03-17T18:34:59.391Z,23.8
2023-03-17T18:40:50.886Z,23.9
2023-03-17T18:46:28.297Z,23.8
2023-03-17T18:51:50.044Z,23.7
2023-03-17T18:57:44.555Z,23.6
2023-03-17T19:03:37.250Z,23.5
2023-03-17T19:08:59.638Z,23.3
2023-03-17T19:14:51.892Z,23
2023-03-17T19:20:44.126Z,22.6
2023-03-17T19:26:20.502Z,22.3
2023-03-17T19:31:58.826Z,22
2023-03-17T19:37:53.806Z,21.6
2023-03-17T19:43:22.686Z,21.3
2023-03-17T19:48:47.691Z,20.9
2023-03-17T19:54:10.296Z,20.6
2023-03-17T19:59:46.997Z,20.3
2023-03-17T20:05:40.579Z,20.1
2023-03-17T20:11:33.415Z,19.8
2023-03-17T20:16:57.644Z,19.7
2023-03-17T20:22:19.819Z,19.8
2023-03-17T20:27:42.499Z,20
2023-03-17T20:33:19.825Z,20.2
2023-03-17T20:39:15.371Z,20.3
2023-03-17T20:45:07.153Z,20.3
2023-03-17T20:51:00.081Z,20.1
2023-03-17T20:56:56.014Z,19.9
2023-03-17T21:02:49.375Z,19.7
2023-03-17T21:08:41.830Z,19.4
2023-03-17T21:14:35.488Z,19.2
2023-03-17T21:20:16.093Z,19
2023-03-17T21:25:53.948Z,18.8
2023-03-17T21:31:15.637Z,18.6
2023-03-17T21:37:09.030Z,18.4
2023-03-17T21:43:04.120Z,18.1
2023-03-17T21:48:57.395Z,17.9
2023-03-17T21:54:50.943Z,24.6
2023-03-17T22:00:35.899Z,26.8
2023-03-17T22:05:58.946Z,26.4
2023-03-17T22:11:36.827Z,26
2023-03-17T22:16:59.570Z,25.7
2023-03-17T22:22:40.031Z,25.2
2023-03-17T22:28:33.567Z,25.1
2023-03-17T22:34:27.155Z,24.6
2023-03-17T22:40:21.650Z,24.7
2023-03-17T22:46:02.338Z,24
2023-03-17T22:51:39.679Z,24.2
2023-03-17T22:57:16.659Z,23.7
2023-03-17T23:03:09.557Z,23.8
2023-03-17T23:08:56.581Z,23.6
2023-03-17T23:14:49.302Z,23.4
2023-03-17T23:20:43.160Z,23.6
2023-03-17T23:26:35.135Z,23.1
2023-03-17T23:32:29.128Z,24.4
2023-03-17T23:38:07.201Z,26.6
2023-03-17T23:43:45.033Z,25.1
2023-03-17T23:49:38.456Z,25.2
2023-03-17T23:55:00.303Z,24.6
